createdAt,value
2022-11-16T00:00:22.031Z,1035.65
2022-11-16T00:02:28.078Z,1055.63
2022-11-16T00:04:35.101Z,1048.00
2022-11-16T00:06:41.229Z,1048.17
2022-11-16T00:09:14.111Z,1046.87
2022-11-16T00:11:23.297Z,1033.48
2022-11-16T00:13:29.126Z,1030.42
2022-11-16T00:15:34.880Z,1050.89
2022-11-16T00:17:41.547Z,1046.30
2022-11-16T00:19:47.404Z,1038.79
2022-11-16T00:21:53.170Z,1034.53
2022-11-16T00:24:00.780Z,1034.35
2022-11-16T00:26:09.270Z,1030.35
2022-11-16T00:28:18.117Z,1058.37
2022-11-16T00:30:25.922Z,1107.40
2022-11-16T00:32:32.314Z,1062.94
2022-11-16T00:34:38.629Z,1037.32
2022-11-16T00:36:45.823Z,1035.81
2022-11-16T00:38:56.161Z,1008.39
2022-11-16T00:41:01.897Z,995.50
2022-11-16T00:43:08.493Z,997.47
2022-11-16T00:45:17.329Z,979.34
2022-11-16T00:47:23.109Z,985.27
2022-11-16T00:49:29.620Z,969.12
2022-11-16T00:51:36.006Z,969.61
2022-11-16T00:53:43.000Z,932.52
2022-11-16T00:55:51.763Z,931.47
2022-11-16T00:57:59.238Z,947.30
2022-11-16T01:00:05.359Z,946.90
2022-11-16T01:02:16.214Z,917.71
2022-11-16T01:04:22.057Z,920.08
2022-11-16T01:06:27.934Z,895.74
2022-11-16T01:08:35.859Z,889.15
2022-11-16T01:10:44.335Z,916.59
2022-11-16T01:12:50.228Z,921.09
2022-11-16T01:14:57.144Z,920.03
2022-11-16T01:17:04.949Z,937.50
2022-11-16T01:19:13.784Z,921.59
2022-11-16T01:21:21.262Z,892.31
2022-11-16T01:23:27.065Z,869.45
2022-11-16T01:25:32.916Z,875.66
2022-11-16T01:27:40.128Z,877.89
2022-11-16T01:29:50.095Z,860.60
2022-11-16T01:31:56.253Z,882.02
2022-11-16T01:34:03.325Z,869.22
2022-11-16T01:36:17.430Z,886.63
2022-11-16T01:38:28.430Z,878.67
2022-11-16T01:40:41.134Z,889.06
2022-11-16T01:42:47.396Z,868.55
2022-11-16T01:45:26.347Z,881.38
2022-11-16T01:47:37.104Z,896.27
2022-11-16T01:49:51.614Z,900.29
2022-11-16T01:52:10.109Z,902.66
2022-11-16T01:54:18.279Z,902.64
2022-11-16T01:56:51.867Z,903.55
2022-11-16T01:59:06.398Z,914.02
2022-11-16T02:01:13.119Z,897.46
2022-11-16T02:03:25.555Z,908.29
2022-11-16T02:05:53.231Z,906.44
2022-11-16T02:08:40.686Z,886.77
2022-11-16T02:11:15.285Z,870.87
2022-11-16T02:13:45.020Z,918.26
2022-11-16T02:16:03.458Z,902.66
2022-11-16T02:18:29.964Z,910.93
2022-11-16T02:21:26.657Z,928.69
2022-11-16T02:24:23.522Z,926.15
2022-11-16T02:27:04.917Z,916.10
2022-11-16T02:29:31.806Z,847.33
2022-11-16T02:31:47.493Z,865.59
2022-11-16T02:33:59.009Z,848.96
2022-11-16T02:36:15.424Z,837.83
2022-11-16T02:38:31.179Z,851.38
2022-11-16T02:40:47.954Z,845.48
2022-11-16T02:43:10.700Z,842.94
2022-11-16T02:45:27.408Z,826.55
2022-11-16T02:47:38.304Z,836.82
2022-11-16T02:49:57.504Z,851.56
2022-11-16T02:52:04.991Z,837.74
2022-11-16T02:54:17.491Z,840.82
2022-11-16T02:56:28.461Z,831.96
2022-11-16T02:58:35.099Z,856.48
2022-11-16T03:00:54.909Z,869.87
2022-11-16T03:03:23.703Z,851.72
2022-11-16T03:05:38.370Z,811.59
2022-11-16T03:07:53.870Z,796.40
2022-11-16T03:10:05.475Z,795.58
2022-11-16T03:12:20.733Z,791.63
2022-11-16T03:14:37.682Z,770.81
2022-11-16T03:16:53.821Z,731.50
